AFL6179 UHWW-UHWW
Flight info
| Callsign | AFL6179 |
|---|---|
| Flight time | 0h 24m |
| Altitude | 22000 |
| Route | SANAR2P SANAR A840 GALDI/K0813F210 B356 KESAN KESAN2M |
| Aircraft | B77W/H-SDE1E2E3FGHIJ2J3J4J5M1RWXY/LB1D1 |
Departure
| Time | 2026-04-22 10:44 |
|---|---|
| Airport | Vladivostok International Airport (UHWW) |
Arrival
| Time | 2026-04-22 11:08 |
|---|---|
| Airport | Vladivostok International Airport (UHWW) |
| Time | Latitude | Longitude | Altitude | Speed | Heading |
|---|---|---|---|---|---|
| 2026-04-22 10:23 | 43.39994 | 132.17120 | 61 ft | 0 kts | 151° |
| 2026-04-22 10:34 | 43.39996 | 132.17119 | 61 ft | 0 kts | 140° |
| 2026-04-22 10:35 | 43.40002 | 132.17107 | 61 ft | 2 kts | 106° |
| 2026-04-22 10:35 | 43.40006 | 132.17088 | 61 ft | 2 kts | 110° |
| 2026-04-22 10:35 | 43.40011 | 132.17068 | 61 ft | 2 kts | 113° |
| 2026-04-22 10:35 | 43.40017 | 132.17050 | 61 ft | 2 kts | 112° |
| 2026-04-22 10:36 | 43.40023 | 132.17030 | 61 ft | 2 kts | 112° |
| 2026-04-22 10:36 | 43.40028 | 132.17011 | 61 ft | 2 kts | 112° |
| 2026-04-22 10:36 | 43.40034 | 132.16992 | 61 ft | 2 kts | 112° |
| 2026-04-22 10:36 | 43.40040 | 132.16974 | 61 ft | 2 kts | 112° |
| 2026-04-22 10:37 | 43.40045 | 132.16954 | 61 ft | 2 kts | 112° |
| 2026-04-22 10:37 | 43.40057 | 132.16916 | 61 ft | 2 kts | 112° |
| 2026-04-22 10:37 | 43.40061 | 132.16899 | 61 ft | 1 kts | 126° |
| 2026-04-22 10:38 | 43.40066 | 132.16893 | 61 ft | 0 kts | 148° |
| 2026-04-22 10:39 | 43.40059 | 132.16898 | 61 ft | 3 kts | 152° |
| 2026-04-22 10:40 | 43.40025 | 132.16907 | 61 ft | 6 kts | 194° |
| 2026-04-22 10:40 | 43.39984 | 132.16852 | 61 ft | 10 kts | 238° |
| 2026-04-22 10:40 | 43.39940 | 132.16746 | 61 ft | 12 kts | 240° |
| 2026-04-22 10:40 | 43.39890 | 132.16617 | 61 ft | 18 kts | 246° |
| 2026-04-22 10:41 | 43.39822 | 132.16454 | 61 ft | 19 kts | 235° |
| 2026-04-22 10:41 | 43.39771 | 132.16286 | 61 ft | 18 kts | 252° |
| 2026-04-22 10:41 | 43.39821 | 132.16154 | 61 ft | 14 kts | 329° |
| 2026-04-22 10:41 | 43.39886 | 132.16057 | 61 ft | 14 kts | 266° |
| 2026-04-22 10:42 | 43.39839 | 132.15920 | 61 ft | 19 kts | 240° |
| 2026-04-22 10:42 | 43.39750 | 132.15706 | 61 ft | 32 kts | 241° |
| 2026-04-22 10:42 | 43.39619 | 132.15375 | 61 ft | 46 kts | 240° |
| 2026-04-22 10:42 | 43.39440 | 132.14949 | 61 ft | 56 kts | 240° |
| 2026-04-22 10:43 | 43.39270 | 132.14510 | 61 ft | 33 kts | 238° |
| 2026-04-22 10:43 | 43.39237 | 132.14270 | 61 ft | 23 kts | 311° |
| 2026-04-22 10:43 | 43.39342 | 132.14183 | 61 ft | 11 kts | 351° |
| 2026-04-22 10:43 | 43.39407 | 132.14241 | 61 ft | 18 kts | 59° |
| 2026-04-22 10:44 | 43.39619 | 132.14771 | 62 ft | 113 kts | 61° |
| 2026-04-22 10:44 | 43.40152 | 132.16083 | 223 ft | 187 kts | 59° |
| 2026-04-22 10:44 | 43.40795 | 132.17577 | 1494 ft | 185 kts | 60° |
| 2026-04-22 10:44 | 43.41433 | 132.19180 | 2137 ft | 207 kts | 62° |
| 2026-04-22 10:45 | 43.42161 | 132.20960 | 2882 ft | 224 kts | 61° |
| 2026-04-22 10:45 | 43.42922 | 132.22847 | 3870 ft | 230 kts | 62° |
| 2026-04-22 10:45 | 43.43681 | 132.24748 | 4985 ft | 230 kts | 62° |
| 2026-04-22 10:45 | 43.44438 | 132.26651 | 6035 ft | 232 kts | 62° |
| 2026-04-22 10:46 | 43.45209 | 132.28598 | 7030 ft | 235 kts | 62° |
| 2026-04-22 10:46 | 43.45991 | 132.30572 | 8001 ft | 239 kts | 62° |
| 2026-04-22 10:46 | 43.46774 | 132.32550 | 8950 ft | 243 kts | 62° |
| 2026-04-22 10:46 | 43.47631 | 132.34532 | 9876 ft | 246 kts | 51° |
| 2026-04-22 10:47 | 43.48965 | 132.35957 | 10677 ft | 243 kts | 22° |
| 2026-04-22 10:47 | 43.50617 | 132.36339 | 11083 ft | 247 kts | 354° |
| 2026-04-22 10:47 | 43.52247 | 132.35570 | 11433 ft | 253 kts | 329° |
| 2026-04-22 10:47 | 43.53743 | 132.34299 | 11911 ft | 254 kts | 331° |
| 2026-04-22 10:48 | 43.55289 | 132.33115 | 12356 ft | 255 kts | 328° |
| 2026-04-22 10:48 | 43.56574 | 132.31456 | 12714 ft | 259 kts | 302° |
| 2026-04-22 10:48 | 43.57165 | 132.29155 | 13120 ft | 260 kts | 275° |
| 2026-04-22 10:48 | 43.56912 | 132.26709 | 13533 ft | 261 kts | 248° |
| 2026-04-22 10:49 | 43.56058 | 132.24493 | 13975 ft | 262 kts | 242° |
| 2026-04-22 10:49 | 43.55231 | 132.22288 | 14381 ft | 263 kts | 244° |
| 2026-04-22 10:49 | 43.54385 | 132.20018 | 14765 ft | 266 kts | 243° |
| 2026-04-22 10:49 | 43.53524 | 132.17764 | 15035 ft | 274 kts | 241° |
| 2026-04-22 10:50 | 43.52511 | 132.15430 | 15050 ft | 292 kts | 239° |
| 2026-04-22 10:50 | 43.51437 | 132.12955 | 14791 ft | 309 kts | 240° |
| 2026-04-22 10:50 | 43.50285 | 132.10281 | 12425 ft | 369 kts | 239° |
| 2026-04-22 10:50 | 43.48957 | 132.07253 | 11662 ft | 357 kts | 239° |
| 2026-04-22 10:51 | 43.47815 | 132.04637 | 11532 ft | 290 kts | 239° |
| 2026-04-22 10:51 | 43.46835 | 132.02403 | 10932 ft | 262 kts | 239° |
| 2026-04-22 10:51 | 43.43359 | 131.94446 | 7363 ft | 245 kts | 239° |
| 2026-04-22 10:51 | 43.42572 | 131.92660 | 7863 ft | 215 kts | 240° |
| 2026-04-22 10:52 | 43.41772 | 131.90823 | 7964 ft | 249 kts | 240° |
| 2026-04-22 10:52 | 43.36478 | 131.78772 | 8005 ft | 255 kts | 239° |
| 2026-04-22 10:52 | 43.32199 | 131.69106 | 8162 ft | 257 kts | 236° |
| 2026-04-22 10:52 | 43.30911 | 131.67375 | 8123 ft | 257 kts | 210° |
| 2026-04-22 10:53 | 43.29207 | 131.66637 | 8140 ft | 257 kts | 188° |
| 2026-04-22 10:53 | 43.27425 | 131.66306 | 8149 ft | 257 kts | 185° |
| 2026-04-22 10:53 | 43.25631 | 131.66394 | 8141 ft | 257 kts | 176° |
| 2026-04-22 10:53 | 43.23817 | 131.66490 | 8150 ft | 257 kts | 180° |
| 2026-04-22 10:54 | 43.22031 | 131.66518 | 8143 ft | 255 kts | 180° |
| 2026-04-22 10:54 | 43.20275 | 131.66539 | 8126 ft | 240 kts | 181° |
| 2026-04-22 10:54 | 43.12115 | 131.66562 | 8019 ft | 225 kts | 181° |
| 2026-04-22 10:54 | 43.02839 | 131.66540 | 8084 ft | 221 kts | 181° |
| 2026-04-22 10:55 | 43.00395 | 131.66725 | 8130 ft | 222 kts | 163° |
| 2026-04-22 10:55 | 42.99122 | 131.67833 | 8173 ft | 224 kts | 131° |
| 2026-04-22 10:55 | 42.98460 | 131.69684 | 8131 ft | 224 kts | 100° |
| 2026-04-22 10:55 | 42.98607 | 131.71710 | 8133 ft | 224 kts | 68° |
| 2026-04-22 10:56 | 42.99521 | 131.73354 | 8132 ft | 224 kts | 37° |
| 2026-04-22 10:56 | 43.00933 | 131.74100 | 8134 ft | 224 kts | 8° |
| 2026-04-22 10:56 | 43.02446 | 131.74324 | 8161 ft | 224 kts | 12° |
| 2026-04-22 10:56 | 43.03941 | 131.74858 | 8149 ft | 224 kts | 18° |
| 2026-04-22 10:57 | 43.05384 | 131.75468 | 8146 ft | 224 kts | 19° |
| 2026-04-22 10:57 | 43.12120 | 131.78751 | 8155 ft | 223 kts | 22° |
| 2026-04-22 10:57 | 43.16202 | 131.80946 | 8146 ft | 223 kts | 21° |
| 2026-04-22 10:57 | 43.17493 | 131.81602 | 8093 ft | 199 kts | 21° |
| 2026-04-22 10:58 | 43.18571 | 131.82156 | 7935 ft | 166 kts | 22° |
| 2026-04-22 10:58 | 43.19549 | 131.82663 | 7328 ft | 165 kts | 22° |
| 2026-04-22 10:58 | 43.20557 | 131.83189 | 6512 ft | 175 kts | 22° |
| 2026-04-22 10:58 | 43.21610 | 131.83739 | 5651 ft | 181 kts | 22° |
| 2026-04-22 10:59 | 43.22678 | 131.84297 | 4849 ft | 181 kts | 22° |
| 2026-04-22 10:59 | 43.23741 | 131.84851 | 4089 ft | 178 kts | 22° |
| 2026-04-22 10:59 | 43.24782 | 131.85393 | 3607 ft | 168 kts | 22° |
| 2026-04-22 10:59 | 43.25754 | 131.85899 | 3033 ft | 162 kts | 22° |
| 2026-04-22 11:00 | 43.26707 | 131.86397 | 2411 ft | 163 kts | 22° |
| 2026-04-22 11:00 | 43.27681 | 131.86906 | 1989 ft | 158 kts | 23° |
| 2026-04-22 11:00 | 43.28473 | 131.87688 | 1933 ft | 158 kts | 54° |
| 2026-04-22 11:00 | 43.29020 | 131.88881 | 1989 ft | 163 kts | 59° |
| 2026-04-22 11:01 | 43.29575 | 131.90070 | 1927 ft | 160 kts | 59° |
| 2026-04-22 11:01 | 43.30104 | 131.91287 | 1950 ft | 162 kts | 60° |
| 2026-04-22 11:01 | 43.30351 | 131.91866 | 1949 ft | 158 kts | 61° |
| 2026-04-22 11:03 | 43.30812 | 131.92972 | 1947 ft | 158 kts | 62° |
| 2026-04-22 11:03 | 43.31307 | 131.94223 | 1948 ft | 158 kts | 63° |
| 2026-04-22 11:03 | 43.31791 | 131.95467 | 1944 ft | 158 kts | 63° |
| 2026-04-22 11:03 | 43.32282 | 131.96703 | 1944 ft | 159 kts | 62° |
| 2026-04-22 11:04 | 43.32776 | 131.97935 | 1942 ft | 159 kts | 62° |
| 2026-04-22 11:04 | 43.33276 | 131.99175 | 1943 ft | 161 kts | 62° |
| 2026-04-22 11:04 | 43.33778 | 132.00417 | 1943 ft | 162 kts | 62° |
| 2026-04-22 11:04 | 43.34279 | 132.01651 | 1918 ft | 164 kts | 62° |
| 2026-04-22 11:05 | 43.34795 | 132.02919 | 1708 ft | 159 kts | 62° |
| 2026-04-22 11:05 | 43.35293 | 132.04140 | 1519 ft | 158 kts | 62° |
| 2026-04-22 11:05 | 43.35786 | 132.05354 | 1331 ft | 158 kts | 62° |
| 2026-04-22 11:05 | 43.36280 | 132.06566 | 1139 ft | 158 kts | 62° |
| 2026-04-22 11:06 | 43.36776 | 132.07788 | 944 ft | 157 kts | 62° |
| 2026-04-22 11:06 | 43.37263 | 132.08989 | 763 ft | 153 kts | 59° |
| 2026-04-22 11:06 | 43.37755 | 132.10141 | 563 ft | 151 kts | 60° |
| 2026-04-22 11:06 | 43.38226 | 132.11284 | 400 ft | 147 kts | 62° |
| 2026-04-22 11:07 | 43.38687 | 132.12453 | 222 ft | 151 kts | 63° |
| 2026-04-22 11:07 | 43.39146 | 132.13599 | 64 ft | 142 kts | 61° |
| 2026-04-22 11:07 | 43.39498 | 132.14465 | 61 ft | 67 kts | 62° |
| 2026-04-22 11:07 | 43.39678 | 132.14928 | 61 ft | 64 kts | 60° |
| 2026-04-22 11:08 | 43.39869 | 132.15399 | 61 ft | 58 kts | 60° |
| 2026-04-22 11:08 | 43.40031 | 132.15849 | 61 ft | 55 kts | 57° |
| 2026-04-22 11:08 | 43.40209 | 132.16238 | 61 ft | 34 kts | 60° |
| 2026-04-22 11:08 | 43.40292 | 132.16458 | 61 ft | 27 kts | 58° |
| 2026-04-22 11:09 | 43.40380 | 132.16667 | 61 ft | 23 kts | 60° |
| 2026-04-22 11:09 | 43.40393 | 132.16705 | 61 ft | 0 kts | 71° |
| 2026-04-22 11:10 | 43.40405 | 132.16754 | 61 ft | 8 kts | 71° |
| 2026-04-22 11:10 | 43.40401 | 132.16856 | 61 ft | 15 kts | 120° |
| 2026-04-22 11:10 | 43.40294 | 132.16956 | 61 ft | 25 kts | 153° |
| 2026-04-22 11:11 | 43.40138 | 132.17072 | 61 ft | 27 kts | 156° |
| 2026-04-22 11:11 | 43.40020 | 132.16951 | 61 ft | 24 kts | 246° |
| 2026-04-22 11:11 | 43.39944 | 132.16766 | 61 ft | 19 kts | 226° |
| 2026-04-22 11:11 | 43.39885 | 132.16746 | 61 ft | 10 kts | 165° |
| 2026-04-22 11:12 | 43.39858 | 132.16762 | 61 ft | 0 kts | 150° |
| 2026-04-22 11:12 | 43.39849 | 132.16768 | 61 ft | 0 kts | 151° |